Time;durP1;ratioP1;P1;durP2;ratioP2;P2;SDS_P1;SDS_P2;PMS_P1;PMS_P2;Temp;Humidity;BMP_temperature;BMP_pressure;BME280_temperature;BME280_humidity;BME280_pressure;Samples;Min_cycle;Max_cycle;Signal;HPM_P1;HPM_P2
2022/03/19 00:00:53;;;;;;;22.95;3.60;;;;;;;;;;4978666;28;20046;-86
2022/03/19 00:03:20;;;;;;;12.48;3.50;;;;;;;;;;4982491;28;20041;-86
2022/03/19 00:05:47;;;;;;;16.98;3.35;;;;;;;;;;4980852;28;20433;-86
2022/03/19 00:08:16;;;;;;;13.52;2.50;;;;;;;;;;4966131;28;20050;-86
2022/03/19 00:10:42;;;;;;;36.95;3.83;;;;;;;;;;4967220;28;20058;-86
2022/03/19 00:13:09;;;;;;;22.60;2.78;;;;;;;;;;4970096;28;20126;-86
2022/03/19 00:15:35;;;;;;;21.83;2.40;;;;;;;;;;4967648;28;20071;-86
2022/03/19 00:18:02;;;;;;;16.05;3.03;;;;;;;;;;4970399;28;20109;-86
2022/03/19 00:20:28;;;;;;;20.10;2.83;;;;;;;;;;4964096;28;20380;-86
2022/03/19 00:22:54;;;;;;;22.15;3.15;;;;;;;;;;4983483;28;20157;-86
2022/03/19 00:25:20;;;;;;;16.25;2.78;;;;;;;;;;4968798;28;20034;-86
2022/03/19 00:27:46;;;;;;;18.38;2.90;;;;;;;;;;4969005;28;20034;-86
2022/03/19 00:30:12;;;;;;;15.93;2.72;;;;;;;;;;4968255;28;20038;-86
2022/03/19 00:32:38;;;;;;;24.05;2.88;;;;;;;;;;4967173;28;20088;-86
2022/03/19 00:35:05;;;;;;;18.98;2.80;;;;;;;;;;4982532;28;20039;-86
2022/03/19 00:37:32;;;;;;;19.77;3.47;;;;;;;;;;4968435;28;20045;-86
2022/03/19 00:39:59;;;;;;;13.77;2.65;;;;;;;;;;4982237;28;20440;-86
2022/03/19 00:42:25;;;;;;;18.75;2.50;;;;;;;;;;4989282;28;20030;-86
2022/03/19 00:44:51;;;;;;;14.95;2.85;;;;;;;;;;4969260;28;20030;-86
2022/03/19 00:47:17;;;;;;;17.08;2.90;;;;;;;;;;4986054;28;20031;-86
2022/03/19 00:49:43;;;;;;;12.02;2.47;;;;;;;;;;4968415;28;20066;-86
2022/03/19 00:52:09;;;;;;;12.13;2.75;;;;;;;;;;4983642;28;20060;-86
2022/03/19 00:54:35;;;;;;;14.55;3.05;;;;;;;;;;4986076;28;20037;-86
2022/03/19 00:57:01;;;;;;;27.98;4.00;;;;;;;;;;4987601;28;20509;-86
2022/03/19 00:59:27;;;;;;;19.90;2.88;;;;;;;;;;4988227;28;20026;-86
2022/03/19 01:01:56;;;;;;;23.83;2.50;;;;;;;;;;4985535;28;20033;-85
2022/03/19 01:04:22;;;;;;;21.88;3.13;;;;;;;;;;4988657;28;20112;-86
2022/03/19 01:06:48;;;;;;;11.48;2.45;;;;;;;;;;5006250;28;20569;-86
2022/03/19 01:09:14;;;;;;;12.25;2.90;;;;;;;;;;4986546;28;20041;-86
2022/03/19 01:11:40;;;;;;;16.10;2.65;;;;;;;;;;5003803;28;20029;-86
2022/03/19 01:14:07;;;;;;;15.80;2.53;;;;;;;;;;5005007;28;20401;-86
2022/03/19 01:16:34;;;;;;;28.00;3.80;;;;;;;;;;4991036;28;20026;-86
2022/03/19 01:19:00;;;;;;;20.80;3.42;;;;;;;;;;4987231;28;20099;-86
2022/03/19 01:21:26;;;;;;;18.30;3.05;;;;;;;;;;4999920;28;20034;-87
2022/03/19 01:23:52;;;;;;;16.95;3.00;;;;;;;;;;4991333;28;20034;-86
2022/03/19 01:26:18;;;;;;;34.03;3.33;;;;;;;;;;4999146;28;21239;-86
2022/03/19 01:28:44;;;;;;;15.70;2.85;;;;;;;;;;4989964;28;20088;-86
2022/03/19 01:31:14;;;;;;;20.35;3.00;;;;;;;;;;4987910;28;20382;-86
2022/03/19 01:33:40;;;;;;;21.45;2.80;;;;;;;;;;5000735;28;20030;-87
2022/03/19 01:36:06;;;;;;;17.77;3.13;;;;;;;;;;4988463;28;20044;-86
2022/03/19 01:38:32;;;;;;;19.98;3.20;;;;;;;;;;4999759;28;20029;-86
2022/03/19 01:40:59;;;;;;;14.68;3.33;;;;;;;;;;5006289;28;20026;-86
2022/03/19 01:43:26;;;;;;;23.05;3.30;;;;;;;;;;4992171;28;20026;-86
2022/03/19 01:45:52;;;;;;;20.90;3.05;;;;;;;;;;4986819;28;20746;-86
2022/03/19 01:48:19;;;;;;;25.02;3.55;;;;;;;;;;5000048;28;20049;-86
2022/03/19 01:50:45;;;;;;;15.98;2.75;;;;;;;;;;4987989;28;20512;-86
2022/03/19 01:53:11;;;;;;;24.20;3.65;;;;;;;;;;4984709;28;20278;-86
2022/03/19 01:55:45;;;;;;;13.90;2.97;;;;;;;;;;4987402;28;20034;-86
2022/03/19 01:58:18;;;;;;;16.58;3.95;;;;;;;;;;5002684;28;20026;-86
2022/03/19 02:00:44;;;;;;;19.38;3.58;;;;;;;;;;5005505;28;20539;-86
2022/03/19 02:03:11;;;;;;;17.70;3.25;;;;;;;;;;5001164;28;20038;-86
2022/03/19 02:05:37;;;;;;;20.23;3.85;;;;;;;;;;5003984;28;20029;-86
2022/03/19 02:08:03;;;;;;;21.55;4.28;;;;;;;;;;4989284;28;20072;-85
2022/03/19 02:10:29;;;;;;;15.95;2.90;;;;;;;;;;4987138;28;20034;-86
2022/03/19 02:12:56;;;;;;;20.45;3.28;;;;;;;;;;4983867;28;20043;-86
2022/03/19 02:15:22;;;;;;;18.17;3.50;;;;;;;;;;5001863;28;20119;-86
2022/03/19 02:17:49;;;;;;;19.15;3.75;;;;;;;;;;4987718;28;20041;-86
2022/03/19 02:20:15;;;;;;;20.33;3.38;;;;;;;;;;5005644;28;20081;-86
2022/03/19 02:25:34;;;;;;;14.77;3.72;;;;;;;;;;4987468;28;20479;-86
2022/03/19 02:25:36;;;;;;;;;;;;;;;;;;4997260;28;20041;-86
2022/03/19 02:28:03;;;;;;;12.15;3.03;;;;;;;;;;4984676;28;19925;-86
2022/03/19 02:30:29;;;;;;;26.80;3.83;;;;;;;;;;5002619;28;20034;-86
2022/03/19 02:32:55;;;;;;;22.10;2.90;;;;;;;;;;4987514;28;20036;-86
2022/03/19 02:35:21;;;;;;;12.18;3.42;;;;;;;;;;4995726;28;20084;-86
2022/03/19 02:37:48;;;;;;;13.88;2.90;;;;;;;;;;4983769;28;20095;-86
2022/03/19 02:40:15;;;;;;;17.80;3.22;;;;;;;;;;5002556;28;20034;-87
2022/03/19 02:42:42;;;;;;;29.00;4.60;;;;;;;;;;4988436;28;20516;-86
2022/03/19 02:45:08;;;;;;;13.00;3.40;;;;;;;;;;5000494;28;20153;-86
2022/03/19 02:47:56;;;;;;;21.10;3.88;;;;;;;;;;4985992;28;20517;-85
2022/03/19 02:50:21;;;;;;;22.42;3.40;;;;;;;;;;5001626;28;20089;-86
2022/03/19 02:52:47;;;;;;;19.67;3.20;;;;;;;;;;4987310;28;21301;-86
2022/03/19 02:55:13;;;;;;;13.13;3.20;;;;;;;;;;4984278;28;20444;-87
2022/03/19 02:57:39;;;;;;;15.30;3.13;;;;;;;;;;4987928;28;20072;-86
2022/03/19 03:00:05;;;;;;;23.80;3.53;;;;;;;;;;4974241;28;20454;-86
2022/03/19 03:02:31;;;;;;;17.58;3.20;;;;;;;;;;4965175;28;20569;-86
2022/03/19 03:04:58;;;;;;;24.98;3.63;;;;;;;;;;4981953;28;20035;-86
2022/03/19 03:07:24;;;;;;;15.98;3.72;;;;;;;;;;4969607;28;20104;-86
2022/03/19 03:09:50;;;;;;;20.10;3.95;;;;;;;;;;4986017;28;20114;-86
2022/03/19 03:12:16;;;;;;;18.40;4.82;;;;;;;;;;4969668;28;20050;-86
2022/03/19 03:14:42;;;;;;;24.17;3.95;;;;;;;;;;4986506;28;20049;-86
2022/03/19 03:17:08;;;;;;;19.70;4.63;;;;;;;;;;4964236;28;20053;-86
2022/03/19 03:19:35;;;;;;;22.75;4.65;;;;;;;;;;4968758;28;20696;-86
2022/03/19 03:22:01;;;;;;;23.73;4.38;;;;;;;;;;4984089;28;20022;-86
2022/03/19 03:24:29;;;;;;;27.15;4.97;;;;;;;;;;4965091;28;20030;-86
2022/03/19 03:26:55;;;;;;;19.92;4.47;;;;;;;;;;4964542;28;20026;-86
2022/03/19 03:29:21;;;;;;;23.75;5.65;;;;;;;;;;4984091;28;20030;-86
2022/03/19 03:31:48;;;;;;;15.32;5.03;;;;;;;;;;4969952;28;20038;-86
2022/03/19 03:34:15;;;;;;;28.13;4.57;;;;;;;;;;4965876;28;20062;-86
2022/03/19 03:36:41;;;;;;;22.08;4.72;;;;;;;;;;4981788;28;20691;-86
2022/03/19 03:39:07;;;;;;;22.60;5.05;;;;;;;;;;4964839;28;20040;-86
2022/03/19 03:41:33;;;;;;;25.17;5.30;;;;;;;;;;4967282;28;20038;-86
2022/03/19 03:43:59;;;;;;;35.47;5.72;;;;;;;;;;4982739;28;20038;-86
2022/03/19 03:46:25;;;;;;;18.98;5.22;;;;;;;;;;4982182;28;20042;-86
2022/03/19 03:48:52;;;;;;;23.13;5.60;;;;;;;;;;4966570;28;21248;-86
2022/03/19 03:51:18;;;;;;;27.80;6.03;;;;;;;;;;4964828;28;20038;-86
2022/03/19 03:53:45;;;;;;;29.08;6.95;;;;;;;;;;4962775;28;20036;-86
2022/03/19 03:56:11;;;;;;;29.42;6.38;;;;;;;;;;4967124;28;20111;-86
2022/03/19 03:58:40;;;;;;;23.98;6.20;;;;;;;;;;4997644;28;20081;-86
2022/03/19 04:01:06;;;;;;;19.63;5.60;;;;;;;;;;4998246;28;20581;-86
2022/03/19 04:03:32;;;;;;;32.47;5.95;;;;;;;;;;4984262;28;20038;-86
2022/03/19 04:05:58;;;;;;;29.92;5.57;;;;;;;;;;5001217;28;20096;-86
2022/03/19 04:08:24;;;;;;;25.52;6.10;;;;;;;;;;4982131;28;20033;-86
2022/03/19 04:10:50;;;;;;;20.00;5.68;;;;;;;;;;4999205;28;20029;-86
2022/03/19 04:13:16;;;;;;;19.10;5.65;;;;;;;;;;5000142;28;20084;-86
2022/03/19 04:15:42;;;;;;;38.10;6.88;;;;;;;;;;4984023;28;20054;-87
2022/03/19 04:18:09;;;;;;;25.45;6.18;;;;;;;;;;4984274;28;20109;-86
2022/03/19 04:20:35;;;;;;;19.02;6.22;;;;;;;;;;4985681;28;20030;-87
2022/03/19 04:23:01;;;;;;;21.85;5.82;;;;;;;;;;4986701;28;20449;-86
2022/03/19 04:25:27;;;;;;;32.67;6.22;;;;;;;;;;4985304;28;20042;-86
2022/03/19 04:27:54;;;;;;;17.48;6.30;;;;;;;;;;4973499;28;20499;-86
2022/03/19 04:30:22;;;;;;;23.58;6.40;;;;;;;;;;4983919;28;20028;-86
2022/03/19 04:32:49;;;;;;;20.45;5.88;;;;;;;;;;5004196;28;20033;-86
2022/03/19 04:38:02;;;;;;;32.90;6.18;;;;;;;;;;5002559;28;20041;-86
2022/03/19 04:40:28;;;;;;;16.67;6.30;;;;;;;;;;5003184;28;20474;-86
2022/03/19 04:42:55;;;;;;;22.35;5.60;;;;;;;;;;4997336;28;20724;-86
2022/03/19 04:45:21;;;;;;;22.20;5.82;;;;;;;;;;4984560;28;20643;-86
2022/03/19 04:47:47;;;;;;;25.75;6.70;;;;;;;;;;4985768;28;20107;-86
2022/03/19 04:50:13;;;;;;;24.35;6.20;;;;;;;;;;4984704;28;20041;-86
2022/03/19 04:52:40;;;;;;;30.98;7.13;;;;;;;;;;4987652;28;20030;-86
2022/03/19 04:55:06;;;;;;;23.83;6.40;;;;;;;;;;5001780;28;20073;-86
2022/03/19 04:57:33;;;;;;;18.38;6.55;;;;;;;;;;5003393;28;20549;-86
2022/03/19 04:59:59;;;;;;;21.67;6.05;;;;;;;;;;4990359;28;20042;-86
2022/03/19 05:02:25;;;;;;;22.00;6.47;;;;;;;;;;5003852;28;20042;-87
2022/03/19 05:04:52;;;;;;;18.60;7.05;;;;;;;;;;5002166;28;20038;-86
2022/03/19 05:07:21;;;;;;;21.63;6.18;;;;;;;;;;4988952;28;20034;-86
2022/03/19 05:12:33;;;;;;;17.27;6.30;;;;;;;;;;5002823;28;20057;-86
2022/03/19 05:15:00;;;;;;;19.45;7.53;;;;;;;;;;4988029;28;20034;-86
2022/03/19 05:17:26;;;;;;;21.55;6.65;;;;;;;;;;5001680;28;20029;-87
2022/03/19 05:19:53;;;;;;;23.25;6.50;;;;;;;;;;4985166;28;20038;-86
2022/03/19 05:22:19;;;;;;;24.65;6.72;;;;;;;;;;4982789;28;20409;-87
2022/03/19 05:24:45;;;;;;;25.27;7.07;;;;;;;;;;4986508;28;20531;-86
2022/03/19 05:27:12;;;;;;;29.58;7.85;;;;;;;;;;4988794;28;20034;-86
2022/03/19 05:29:38;;;;;;;31.65;8.32;;;;;;;;;;4991094;28;20092;-87
2022/03/19 05:32:05;;;;;;;26.10;7.60;;;;;;;;;;4972028;28;20023;-86
2022/03/19 05:34:31;;;;;;;26.60;8.52;;;;;;;;;;4978693;28;20557;-86
2022/03/19 05:36:58;;;;;;;28.83;8.02;;;;;;;;;;4982646;28;20116;-86
2022/03/19 05:39:24;;;;;;;26.48;8.05;;;;;;;;;;4988405;28;20025;-86
2022/03/19 05:41:50;;;;;;;26.60;8.05;;;;;;;;;;4984836;28;20129;-86
2022/03/19 05:44:16;;;;;;;26.35;9.43;;;;;;;;;;5001395;28;20057;-86
2022/03/19 05:46:42;;;;;;;26.30;8.80;;;;;;;;;;4987230;28;20117;-86
2022/03/19 05:49:08;;;;;;;33.85;9.48;;;;;;;;;;4983933;28;20108;-86
2022/03/19 05:51:41;;;;;;;26.83;9.00;;;;;;;;;;4989756;28;20029;-86
2022/03/19 05:54:07;;;;;;;26.55;9.68;;;;;;;;;;4984023;28;20486;-86
2022/03/19 05:56:33;;;;;;;40.25;9.82;;;;;;;;;;4998554;28;20103;-86
2022/03/19 05:58:59;;;;;;;33.22;9.68;;;;;;;;;;4987939;28;20437;-86
2022/03/19 06:01:26;;;;;;;28.77;8.80;;;;;;;;;;4988083;28;20029;-86
2022/03/19 06:03:55;;;;;;;24.50;9.85;;;;;;;;;;4989747;28;20088;-85
2022/03/19 06:06:22;;;;;;;27.63;8.50;;;;;;;;;;5001712;28;20437;-86
2022/03/19 06:08:48;;;;;;;29.65;10.52;;;;;;;;;;4983860;28;20296;-86
2022/03/19 06:11:14;;;;;;;26.08;9.52;;;;;;;;;;4986924;28;20080;-86
2022/03/19 06:13:40;;;;;;;23.90;9.82;;;;;;;;;;4984254;28;20478;-86
2022/03/19 06:16:06;;;;;;;23.73;9.82;;;;;;;;;;4980961;28;20062;-86
2022/03/19 06:18:32;;;;;;;37.92;10.40;;;;;;;;;;4984018;28;20113;-86
2022/03/19 06:20:58;;;;;;;34.30;10.73;;;;;;;;;;4984506;28;20397;-86
2022/03/19 06:23:25;;;;;;;26.55;9.13;;;;;;;;;;4998878;28;20418;-86
2022/03/19 06:25:51;;;;;;;26.85;9.18;;;;;;;;;;5000875;28;20073;-86
2022/03/19 06:28:17;;;;;;;19.27;7.72;;;;;;;;;;5001506;28;20385;-86
2022/03/19 06:30:43;;;;;;;20.02;7.55;;;;;;;;;;4999332;28;20040;-86
2022/03/19 06:33:11;;;;;;;21.98;7.57;;;;;;;;;;4997269;28;20052;-86
2022/03/19 06:38:24;;;;;;;23.27;7.32;;;;;;;;;;4995152;28;20033;-86
2022/03/19 06:40:50;;;;;;;21.45;7.15;;;;;;;;;;4984795;28;20814;-86
2022/03/19 06:43:16;;;;;;;29.20;7.93;;;;;;;;;;4998158;28;20051;-86
2022/03/19 06:45:42;;;;;;;32.42;7.53;;;;;;;;;;4987757;28;20034;-85
2022/03/19 06:48:08;;;;;;;19.23;7.07;;;;;;;;;;4999136;28;20603;-85
2022/03/19 06:50:34;;;;;;;16.75;6.40;;;;;;;;;;4999706;28;20034;-85
2022/03/19 06:53:02;;;;;;;22.50;7.53;;;;;;;;;;4977797;28;20033;-85
2022/03/19 06:55:28;;;;;;;21.30;6.30;;;;;;;;;;4996229;28;21358;-86
2022/03/19 06:57:55;;;;;;;20.38;6.63;;;;;;;;;;4986837;28;20105;-86
2022/03/19 07:00:21;;;;;;;16.17;6.05;;;;;;;;;;4985316;28;20049;-86
2022/03/19 07:02:48;;;;;;;17.90;5.88;;;;;;;;;;4984713;28;20040;-86
2022/03/19 07:05:19;;;;;;;16.30;6.47;;;;;;;;;;4983638;28;20081;-85
2022/03/19 07:07:45;;;;;;;20.00;6.50;;;;;;;;;;4987280;28;20883;-86
2022/03/19 07:10:11;;;;;;;28.85;7.00;;;;;;;;;;4980241;28;20069;-86
2022/03/19 07:12:46;;;;;;;23.42;6.03;;;;;;;;;;4997788;28;20160;-86
2022/03/19 07:15:16;;;;;;;26.63;6.13;;;;;;;;;;5002636;28;20018;-86
2022/03/19 07:17:43;;;;;;;18.75;6.00;;;;;;;;;;4981538;28;20273;-86
2022/03/19 07:20:10;;;;;;;23.90;6.00;;;;;;;;;;4983602;28;20035;-86
2022/03/19 07:22:52;;;;;;;25.30;5.93;;;;;;;;;;4982187;28;20091;-86
2022/03/19 07:25:19;;;;;;;25.05;6.07;;;;;;;;;;4984696;28;20057;-86
2022/03/19 07:27:47;;;;;;;11.32;5.35;;;;;;;;;;4981739;28;20033;-86
2022/03/19 07:30:13;;;;;;;15.20;5.22;;;;;;;;;;4985065;28;20056;-86
2022/03/19 07:32:39;;;;;;;21.20;5.38;;;;;;;;;;4989740;28;20022;-86
2022/03/19 07:35:06;;;;;;;19.60;5.07;;;;;;;;;;4987973;28;20133;-86
2022/03/19 07:37:33;;;;;;;16.65;4.50;;;;;;;;;;4984303;28;20506;-86
2022/03/19 07:40:00;;;;;;;26.70;5.40;;;;;;;;;;5001012;28;20386;-86
2022/03/19 07:42:26;;;;;;;10.05;5.00;;;;;;;;;;4985709;28;20129;-86
2022/03/19 07:44:52;;;;;;;21.95;5.97;;;;;;;;;;4983541;28;20045;-87
2022/03/19 07:47:19;;;;;;;17.42;4.53;;;;;;;;;;4986942;28;20038;-86
2022/03/19 07:49:45;;;;;;;12.80;4.93;;;;;;;;;;4986282;28;20657;-86
2022/03/19 07:52:11;;;;;;;17.35;5.10;;;;;;;;;;4982024;28;20026;-86
2022/03/19 07:54:38;;;;;;;14.77;5.10;;;;;;;;;;4985428;28;20022;-84
2022/03/19 07:57:11;;;;;;;16.88;4.28;;;;;;;;;;4999437;28;20050;-87
2022/03/19 07:59:44;;;;;;;15.65;4.35;;;;;;;;;;4981097;28;20029;-84
2022/03/19 08:02:10;;;;;;;15.32;4.53;;;;;;;;;;4982912;28;20040;-84
2022/03/19 08:04:36;;;;;;;13.13;4.55;;;;;;;;;;4978277;28;20391;-84
2022/03/19 08:07:08;;;;;;;24.23;4.78;;;;;;;;;;4985259;28;20076;-84
2022/03/19 08:09:36;;;;;;;15.20;4.72;;;;;;;;;;4998604;28;20023;-85
2022/03/19 08:12:02;;;;;;;18.73;3.97;;;;;;;;;;4983349;28;20202;-85
2022/03/19 08:14:29;;;;;;;28.08;5.43;;;;;;;;;;4999609;28;20026;-84
2022/03/19 08:16:55;;;;;;;16.13;4.65;;;;;;;;;;4999163;28;20034;-85
2022/03/19 08:19:24;;;;;;;19.65;4.80;;;;;;;;;;4983371;28;20397;-85
2022/03/19 08:21:52;;;;;;;10.80;3.95;;;;;;;;;;4978128;28;20041;-84
2022/03/19 08:24:23;;;;;;;9.95;3.88;;;;;;;;;;4979958;28;20041;-85
2022/03/19 08:26:52;;;;;;;8.25;3.22;;;;;;;;;;4984860;28;20298;-85
2022/03/19 08:29:18;;;;;;;14.10;4.28;;;;;;;;;;4971943;28;20535;-85
2022/03/19 08:31:44;;;;;;;15.15;4.53;;;;;;;;;;4997525;28;20110;-85
2022/03/19 08:34:10;;;;;;;17.15;3.75;;;;;;;;;;4982915;28;20046;-85
2022/03/19 08:36:36;;;;;;;15.82;4.40;;;;;;;;;;4989159;28;20029;-84
2022/03/19 08:41:47;;;;;;;12.98;3.65;;;;;;;;;;5009707;28;20452;-85
2022/03/19 08:44:13;;;;;;;15.55;3.70;;;;;;;;;;5003723;28;20358;-85
2022/03/19 08:46:40;;;;;;;12.30;3.38;;;;;;;;;;4988464;28;20061;-85
2022/03/19 08:49:06;;;;;;;11.73;4.72;;;;;;;;;;5002464;28;20532;-85
2022/03/19 08:51:41;;;;;;;9.43;3.60;;;;;;;;;;5007744;28;20038;-85
2022/03/19 08:54:08;;;;;;;15.53;4.33;;;;;;;;;;4985119;28;20478;-84
2022/03/19 08:56:35;;;;;;;10.35;3.92;;;;;;;;;;4987285;28;20676;-85
2022/03/19 08:59:01;;;;;;;19.77;3.78;;;;;;;;;;4996651;28;20034;-85
2022/03/19 09:01:27;;;;;;;11.82;3.53;;;;;;;;;;4987598;28;20042;-85
2022/03/19 09:03:54;;;;;;;11.77;3.78;;;;;;;;;;4981995;28;20041;-85
2022/03/19 09:06:20;;;;;;;15.93;3.60;;;;;;;;;;5000401;28;20058;-84
2022/03/19 09:08:47;;;;;;;13.73;3.97;;;;;;;;;;4987891;28;20036;-85
2022/03/19 09:11:13;;;;;;;16.98;4.22;;;;;;;;;;4985944;28;20038;-85
2022/03/19 09:13:40;;;;;;;16.80;3.90;;;;;;;;;;4987535;28;20068;-85
2022/03/19 09:16:07;;;;;;;15.60;3.60;;;;;;;;;;4994179;28;20030;-85
2022/03/19 09:18:33;;;;;;;10.18;3.75;;;;;;;;;;5000702;28;20379;-85
2022/03/19 09:20:59;;;;;;;15.38;3.83;;;;;;;;;;5002301;28;20696;-85
2022/03/19 09:23:26;;;;;;;15.15;4.78;;;;;;;;;;4987165;28;20042;-85
2022/03/19 09:25:52;;;;;;;17.02;4.05;;;;;;;;;;4986034;28;20050;-85
2022/03/19 09:28:18;;;;;;;15.27;3.17;;;;;;;;;;4984080;28;20026;-85
2022/03/19 09:30:44;;;;;;;17.20;4.63;;;;;;;;;;4985473;28;20088;-84
2022/03/19 09:33:10;;;;;;;10.82;3.67;;;;;;;;;;5002908;28;20032;-85
2022/03/19 09:35:36;;;;;;;14.52;4.38;;;;;;;;;;5002204;28;20030;-85
2022/03/19 09:38:02;;;;;;;17.48;4.28;;;;;;;;;;5003042;28;20445;-84
2022/03/19 09:40:28;;;;;;;12.68;4.45;;;;;;;;;;4982732;28;20525;-85
2022/03/19 09:42:57;;;;;;;8.60;3.53;;;;;;;;;;5000607;28;20375;-85
2022/03/19 09:45:23;;;;;;;13.27;4.05;;;;;;;;;;4991234;28;20496;-85
2022/03/19 09:47:51;;;;;;;15.35;4.10;;;;;;;;;;5006399;28;20034;-84
2022/03/19 09:50:17;;;;;;;20.90;4.43;;;;;;;;;;4994739;28;20501;-85
2022/03/19 09:52:44;;;;;;;9.18;3.97;;;;;;;;;;4998525;28;20052;-84
2022/03/19 09:55:17;;;;;;;13.90;4.00;;;;;;;;;;4983123;28;20041;-84
2022/03/19 09:57:43;;;;;;;10.65;4.15;;;;;;;;;;4973150;28;20506;-85
2022/03/19 10:00:10;;;;;;;15.32;4.22;;;;;;;;;;4968242;28;20034;-85
2022/03/19 10:02:55;;;;;;;13.15;4.15;;;;;;;;;;4979349;28;20058;-84
2022/03/19 10:10:52;;;;;;;14.32;4.07;;;;;;;;;;4981462;28;20042;-85
2022/03/19 10:13:17;;;;;;;14.65;4.78;;;;;;;;;;4971314;28;20018;-85
2022/03/19 10:15:44;;;;;;;12.73;4.45;;;;;;;;;;4968403;28;20490;-85
2022/03/19 10:18:11;;;;;;;18.92;4.35;;;;;;;;;;4965696;28;20553;-85
2022/03/19 10:20:38;;;;;;;11.20;4.28;;;;;;;;;;4974612;28;20477;-85
2022/03/19 10:23:04;;;;;;;15.68;4.22;;;;;;;;;;4967890;28;20025;-85
2022/03/19 10:25:31;;;;;;;14.07;3.45;;;;;;;;;;4963850;28;20498;-85
2022/03/19 10:28:01;;;;;;;10.07;3.28;;;;;;;;;;4979098;28;20077;-85
2022/03/19 10:30:35;;;;;;;9.48;3.50;;;;;;;;;;4982160;28;20535;-85
2022/03/19 10:33:01;;;;;;;6.47;3.50;;;;;;;;;;4971024;28;20022;-85
2022/03/19 10:35:31;;;;;;;13.57;3.50;;;;;;;;;;4962535;28;20033;-85
2022/03/19 10:37:58;;;;;;;16.75;3.92;;;;;;;;;;4961171;28;20097;-85
2022/03/19 10:40:38;;;;;;;15.55;3.83;;;;;;;;;;4979363;28;20710;-85
2022/03/19 10:43:05;;;;;;;9.77;3.80;;;;;;;;;;4964749;28;20065;-85
2022/03/19 10:45:31;;;;;;;8.95;3.78;;;;;;;;;;4971274;28;20050;-85
2022/03/19 10:48:06;;;;;;;14.88;4.50;;;;;;;;;;4949674;28;20085;-85
2022/03/19 10:50:39;;;;;;;13.52;3.60;;;;;;;;;;4967973;28;20041;-85
2022/03/19 10:53:06;;;;;;;17.48;4.13;;;;;;;;;;4977729;28;20038;-85
2022/03/19 10:55:32;;;;;;;9.20;3.25;;;;;;;;;;4978857;28;20511;-85
2022/03/19 10:58:06;;;;;;;11.23;4.15;;;;;;;;;;4978998;28;20046;-85
2022/03/19 11:00:33;;;;;;;11.02;2.90;;;;;;;;;;4965285;28;20133;-85
2022/03/19 11:03:00;;;;;;;6.45;2.95;;;;;;;;;;4981139;28;20533;-86
2022/03/19 11:05:29;;;;;;;12.55;3.35;;;;;;;;;;4981881;28;20050;-85
2022/03/19 11:07:55;;;;;;;5.95;2.88;;;;;;;;;;4980640;28;20618;-85
2022/03/19 11:10:22;;;;;;;7.70;2.67;;;;;;;;;;4975269;28;20031;-85
2022/03/19 11:12:53;;;;;;;9.43;3.33;;;;;;;;;;4987618;28;20579;-85
2022/03/19 11:15:20;;;;;;;9.02;2.97;;;;;;;;;;4958565;28;20022;-85
2022/03/19 11:17:48;;;;;;;21.65;2.95;;;;;;;;;;4978970;28;20042;-85
2022/03/19 11:20:14;;;;;;;10.57;3.78;;;;;;;;;;4960296;28;20030;-86
2022/03/19 11:22:42;;;;;;;19.73;4.95;;;;;;;;;;4973059;28;20034;-85
2022/03/19 11:25:14;;;;;;;8.63;2.70;;;;;;;;;;4960350;28;20038;-86
2022/03/19 11:27:42;;;;;;;5.05;2.00;;;;;;;;;;4968327;28;20145;-86
2022/03/19 11:30:25;;;;;;;10.18;3.65;;;;;;;;;;4985515;28;20401;-85
2022/03/19 11:33:00;;;;;;;6.97;2.90;;;;;;;;;;4968608;28;20098;-86
2022/03/19 11:35:26;;;;;;;5.25;2.42;;;;;;;;;;4958638;28;20073;-86
2022/03/19 11:38:03;;;;;;;4.38;2.20;;;;;;;;;;4975937;28;20889;-86
2022/03/19 11:40:32;;;;;;;3.00;2.20;;;;;;;;;;4979672;28;20046;-86
2022/03/19 11:43:00;;;;;;;13.23;3.90;;;;;;;;;;4957856;28;20094;-85
2022/03/19 11:45:27;;;;;;;8.82;2.90;;;;;;;;;;4959266;28;20100;-85
2022/03/19 11:47:53;;;;;;;5.90;2.40;;;;;;;;;;4971870;28;20113;-86
2022/03/19 11:50:26;;;;;;;5.18;2.33;;;;;;;;;;4973087;28;20038;-85
2022/03/19 11:52:55;;;;;;;6.55;2.42;;;;;;;;;;4969596;28;20479;-85
2022/03/19 11:55:29;;;;;;;4.45;1.90;;;;;;;;;;4976329;28;20384;-85
2022/03/19 11:57:58;;;;;;;6.70;1.90;;;;;;;;;;4979520;28;20124;-86
2022/03/19 12:00:25;;;;;;;4.88;1.83;;;;;;;;;;4978594;28;20383;-85
2022/03/19 12:03:04;;;;;;;3.30;1.88;;;;;;;;;;4968018;28;20047;-85
2022/03/19 12:05:30;;;;;;;7.57;2.75;;;;;;;;;;4960554;28;20121;-85
2022/03/19 12:08:00;;;;;;;7.90;2.47;;;;;;;;;;4965643;28;20783;-86
2022/03/19 12:10:31;;;;;;;5.85;2.65;;;;;;;;;;4978557;28;20692;-85
2022/03/19 12:12:58;;;;;;;7.32;2.53;;;;;;;;;;4968230;28;20037;-85
2022/03/19 12:15:33;;;;;;;5.78;1.90;;;;;;;;;;4969108;28;20378;-86
2022/03/19 12:18:18;;;;;;;6.00;2.92;;;;;;;;;;4964786;28;20679;-86
2022/03/19 12:20:44;;;;;;;8.65;2.05;;;;;;;;;;4973795;28;20057;-85
2022/03/19 12:23:12;;;;;;;6.18;2.28;;;;;;;;;;4980421;28;20440;-85
2022/03/19 12:25:42;;;;;;;4.72;1.92;;;;;;;;;;4976370;28;20918;-86
2022/03/19 12:28:08;;;;;;;7.10;1.83;;;;;;;;;;4965901;28;20478;-85
2022/03/19 12:30:36;;;;;;;4.05;1.55;;;;;;;;;;4984264;28;20595;-85
2022/03/19 12:33:02;;;;;;;5.88;1.80;;;;;;;;;;4984483;28;20043;-86
2022/03/19 12:35:42;;;;;;;4.35;1.80;;;;;;;;;;4976784;28;20034;-85
2022/03/19 12:38:08;;;;;;;4.28;1.55;;;;;;;;;;4977015;28;20030;-85
2022/03/19 12:43:20;;;;;;;;;;;;;;;;;;4979156;28;20061;-85
2022/03/19 12:45:51;;;;;;;7.00;1.95;;;;;;;;;;4967917;28;20366;-85
2022/03/19 12:48:21;;;;;;;6.18;1.83;;;;;;;;;;4967978;28;20038;-85
2022/03/19 12:50:51;;;;;;;2.53;1.52;;;;;;;;;;4962230;28;20039;-84
2022/03/19 12:53:28;;;;;;;5.00;1.60;;;;;;;;;;4981951;28;20723;-85
2022/03/19 12:56:09;;;;;;;5.07;1.65;;;;;;;;;;4960532;28;20514;-85
2022/03/19 12:58:50;;;;;;;7.20;2.40;;;;;;;;;;4993240;28;20528;-85
2022/03/19 13:01:18;;;;;;;7.35;1.73;;;;;;;;;;4986616;28;20343;-85
2022/03/19 13:03:45;;;;;;;5.53;2.03;;;;;;;;;;4997436;28;20386;-85
2022/03/19 13:06:11;;;;;;;12.73;3.17;;;;;;;;;;4984777;28;20666;-85
2022/03/19 13:08:48;;;;;;;5.53;1.90;;;;;;;;;;4986508;28;20360;-85
2022/03/19 13:11:14;;;;;;;5.00;1.80;;;;;;;;;;4999896;28;20076;-85
2022/03/19 13:13:41;;;;;;;7.38;2.10;;;;;;;;;;4984824;28;20014;-85
2022/03/19 13:16:08;;;;;;;6.63;2.45;;;;;;;;;;4998507;28;20229;-85
2022/03/19 13:18:35;;;;;;;7.25;1.80;;;;;;;;;;4981372;28;20481;-85
2022/03/19 13:21:12;;;;;;;11.60;2.22;;;;;;;;;;4974590;28;20027;-86
2022/03/19 13:23:39;;;;;;;5.93;2.08;;;;;;;;;;4992839;28;20509;-85
2022/03/19 13:26:06;;;;;;;5.32;2.03;;;;;;;;;;4999875;28;20029;-85
2022/03/19 13:28:32;;;;;;;4.95;2.00;;;;;;;;;;4986642;28;20478;-85
2022/03/19 13:30:59;;;;;;;6.65;2.40;;;;;;;;;;4992942;28;20030;-85
2022/03/19 13:33:30;;;;;;;3.88;2.00;;;;;;;;;;4982968;28;20030;-85
2022/03/19 13:35:56;;;;;;;5.70;2.78;;;;;;;;;;4997261;28;20022;-85
2022/03/19 13:38:24;;;;;;;6.10;1.88;;;;;;;;;;4988547;28;20060;-85
2022/03/19 13:40:55;;;;;;;6.38;2.22;;;;;;;;;;4996865;28;20433;-85
2022/03/19 13:43:22;;;;;;;9.93;2.40;;;;;;;;;;4996403;28;20045;-85
2022/03/19 13:45:48;;;;;;;5.78;1.92;;;;;;;;;;4977381;28;20042;-85
2022/03/19 13:48:15;;;;;;;6.22;2.28;;;;;;;;;;4994619;28;20038;-88
2022/03/19 13:50:55;;;;;;;10.27;2.03;;;;;;;;;;4999366;28;20373;-85
2022/03/19 13:53:21;;;;;;;9.75;2.10;;;;;;;;;;4987380;28;20619;-85
2022/03/19 13:55:48;;;;;;;8.20;2.05;;;;;;;;;;4995075;28;20030;-85
2022/03/19 13:58:14;;;;;;;7.22;2.28;;;;;;;;;;4988156;28;20056;-84
2022/03/19 14:00:41;;;;;;;6.07;2.03;;;;;;;;;;4997682;28;20038;-85
2022/03/19 14:03:08;;;;;;;8.90;2.33;;;;;;;;;;4995342;28;20125;-85
2022/03/19 14:05:40;;;;;;;4.00;2.58;;;;;;;;;;5001560;28;20059;-84
2022/03/19 14:08:06;;;;;;;11.10;3.78;;;;;;;;;;4986594;28;20192;-85
2022/03/19 14:10:35;;;;;;;9.07;2.90;;;;;;;;;;4985236;28;20170;-85
2022/03/19 14:13:06;;;;;;;7.00;2.30;;;;;;;;;;4987002;28;20041;-85
2022/03/19 14:15:36;;;;;;;6.70;2.25;;;;;;;;;;4983382;28;20038;-85
2022/03/19 14:18:02;;;;;;;7.40;2.03;;;;;;;;;;4997092;28;20069;-85
2022/03/19 14:20:29;;;;;;;6.13;2.13;;;;;;;;;;4984185;28;20132;-85
2022/03/19 14:22:55;;;;;;;9.35;2.97;;;;;;;;;;4982674;28;20044;-85
2022/03/19 14:25:21;;;;;;;5.45;2.15;;;;;;;;;;4996038;28;20109;-85
2022/03/19 14:27:48;;;;;;;8.48;1.90;;;;;;;;;;4999597;28;20785;-85
2022/03/19 14:30:17;;;;;;;9.68;2.60;;;;;;;;;;5000813;28;20029;-85
2022/03/19 14:32:43;;;;;;;7.50;1.95;;;;;;;;;;4982212;28;20026;-85
2022/03/19 14:35:28;;;;;;;9.88;2.45;;;;;;;;;;4982054;28;20404;-84
2022/03/19 14:37:54;;;;;;;6.55;2.10;;;;;;;;;;4980473;28;20030;-85
2022/03/19 14:40:20;;;;;;;4.55;2.08;;;;;;;;;;4986943;28;20041;-85
2022/03/19 14:42:46;;;;;;;5.50;2.05;;;;;;;;;;4984313;28;20076;-85
2022/03/19 14:45:12;;;;;;;12.82;2.50;;;;;;;;;;4997287;28;20534;-85
2022/03/19 14:47:38;;;;;;;9.13;3.67;;;;;;;;;;5000628;28;20438;-85
2022/03/19 14:50:05;;;;;;;11.25;2.40;;;;;;;;;;4981762;28;20154;-85
2022/03/19 14:52:31;;;;;;;8.20;2.22;;;;;;;;;;4978759;28;20835;-84
2022/03/19 14:54:57;;;;;;;11.30;3.17;;;;;;;;;;4986064;28;20051;-84